createdAt,value
2023-01-26T00:01:17.171Z,4.88
2023-01-26T00:03:44.161Z,5.33
2023-01-26T00:06:13.355Z,4.70
2023-01-26T00:08:41.610Z,5.07
2023-01-26T00:11:09.591Z,5.68
2023-01-26T00:13:36.396Z,5.55
2023-01-26T00:16:03.846Z,5.30
2023-01-26T00:18:31.079Z,5.35
2023-01-26T00:21:02.567Z,5.28
2023-01-26T00:23:30.128Z,5.20
2023-01-26T00:25:56.885Z,5.20
2023-01-26T00:28:23.432Z,5.50
2023-01-26T00:30:50.141Z,5.93
2023-01-26T00:33:17.015Z,5.60
2023-01-26T00:35:46.814Z,5.00
2023-01-26T00:38:13.614Z,4.50
2023-01-26T00:40:40.448Z,4.70
2023-01-26T00:43:07.212Z,5.22
2023-01-26T00:45:35.081Z,5.60
2023-01-26T00:48:01.829Z,5.13
2023-01-26T00:50:28.423Z,5.00
2023-01-26T00:52:55.034Z,5.10
2023-01-26T00:55:21.590Z,5.55
2023-01-26T00:57:49.647Z,5.13
2023-01-26T01:00:17.776Z,5.05
2023-01-26T01:02:44.494Z,5.22
2023-01-26T01:05:11.624Z,5.10
2023-01-26T01:07:38.187Z,5.53
2023-01-26T01:10:05.181Z,4.90
2023-01-26T01:12:31.734Z,5.05
2023-01-26T01:14:58.321Z,4.60
2023-01-26T01:17:25.037Z,5.30
2023-01-26T01:19:51.607Z,5.05
2023-01-26T01:22:18.450Z,4.88
2023-01-26T01:24:44.998Z,5.15
2023-01-26T01:27:11.568Z,4.60
2023-01-26T01:29:38.189Z,5.20
2023-01-26T01:32:04.994Z,5.38
2023-01-26T01:34:31.675Z,5.88
2023-01-26T01:36:58.229Z,4.47
2023-01-26T01:39:24.817Z,4.20
2023-01-26T01:41:51.385Z,5.40
2023-01-26T01:44:20.532Z,4.65
2023-01-26T01:46:57.565Z,4.63
2023-01-26T01:49:32.162Z,5.55
2023-01-26T01:52:11.448Z,5.07
2023-01-26T01:54:41.269Z,4.40
2023-01-26T01:57:15.553Z,4.13
2023-01-26T01:59:52.136Z,5.13
2023-01-26T02:02:18.927Z,4.65
2023-01-26T02:04:45.672Z,4.68
2023-01-26T02:07:12.279Z,5.33
2023-01-26T02:09:58.874Z,4.90
2023-01-26T02:12:29.529Z,4.95
2023-01-26T02:14:57.281Z,5.13
2023-01-26T02:17:24.384Z,5.75
2023-01-26T02:19:52.437Z,4.97
2023-01-26T02:22:52.560Z,4.38
2023-01-26T02:25:50.199Z,5.45
2023-01-26T02:28:17.412Z,5.43
2023-01-26T02:30:44.128Z,4.88
2023-01-26T02:33:25.738Z,5.10
2023-01-26T02:35:52.644Z,4.13
2023-01-26T02:38:21.102Z,4.43
2023-01-26T02:41:00.518Z,4.50
2023-01-26T02:43:27.643Z,5.40
2023-01-26T02:45:55.359Z,5.90
2023-01-26T02:48:40.906Z,4.90
2023-01-26T02:51:07.934Z,4.85
2023-01-26T02:53:34.887Z,4.38
2023-01-26T02:56:01.506Z,5.32
2023-01-26T02:58:28.177Z,4.53
2023-01-26T03:00:54.827Z,4.50
2023-01-26T03:03:25.014Z,4.63
2023-01-26T03:05:52.258Z,4.55
2023-01-26T03:08:19.043Z,4.65
2023-01-26T03:10:47.565Z,4.97
2023-01-26T03:13:14.440Z,4.90
2023-01-26T03:15:52.415Z,5.47
2023-01-26T03:18:39.305Z,4.53
2023-01-26T03:21:28.706Z,4.43
2023-01-26T03:24:13.856Z,4.23
2023-01-26T03:26:59.263Z,4.30
2023-01-26T03:29:26.699Z,4.50
2023-01-26T03:31:53.708Z,4.72
2023-01-26T03:34:20.555Z,4.78
2023-01-26T03:36:48.091Z,5.27
2023-01-26T03:39:35.125Z,4.60
2023-01-26T03:42:20.838Z,4.25
2023-01-26T03:45:06.187Z,5.07
2023-01-26T03:47:52.610Z,4.72
2023-01-26T03:50:37.949Z,4.37
2023-01-26T03:53:38.014Z,5.00
2023-01-26T03:56:24.794Z,4.57
2023-01-26T03:58:55.687Z,4.00
2023-01-26T04:01:33.049Z,4.20
2023-01-26T04:04:18.078Z,4.10
2023-01-26T04:07:04.372Z,4.57
2023-01-26T04:09:31.951Z,4.68
2023-01-26T04:11:58.921Z,4.05
2023-01-26T04:14:49.448Z,4.95
2023-01-26T04:17:35.716Z,4.30
2023-01-26T04:20:21.113Z,4.32
2023-01-26T04:22:47.670Z,4.93
2023-01-26T04:25:16.518Z,4.47
2023-01-26T04:27:43.593Z,5.20
2023-01-26T04:30:12.874Z,4.50
2023-01-26T04:32:39.956Z,3.75
2023-01-26T04:35:07.700Z,4.63
2023-01-26T04:37:34.683Z,5.13
2023-01-26T04:40:01.333Z,4.50
2023-01-26T04:42:27.910Z,4.37
2023-01-26T04:44:54.497Z,4.25
2023-01-26T04:47:21.597Z,4.55
2023-01-26T04:49:48.284Z,4.35
2023-01-26T04:52:15.257Z,4.18
2023-01-26T04:54:42.137Z,4.30
2023-01-26T04:57:09.001Z,4.57
2023-01-26T04:59:35.679Z,4.60
2023-01-26T05:02:02.278Z,4.20
2023-01-26T05:04:28.922Z,4.15
2023-01-26T05:06:55.520Z,4.73
2023-01-26T05:09:22.068Z,4.70
2023-01-26T05:11:48.642Z,4.20
2023-01-26T05:14:16.006Z,4.40
2023-01-26T05:16:42.680Z,4.53
2023-01-26T05:19:09.329Z,4.37
2023-01-26T05:21:35.901Z,5.47
2023-01-26T05:24:02.537Z,4.30
2023-01-26T05:26:29.190Z,4.53
2023-01-26T05:28:55.791Z,4.57
2023-01-26T05:31:22.456Z,4.23
2023-01-26T05:33:49.031Z,5.07
2023-01-26T05:36:15.589Z,4.40
2023-01-26T05:38:42.196Z,5.40
2023-01-26T05:41:08.799Z,4.28
2023-01-26T05:43:35.338Z,4.17
2023-01-26T05:46:02.706Z,5.30
2023-01-26T05:48:29.312Z,4.53
2023-01-26T05:50:57.613Z,4.80
2023-01-26T05:53:24.450Z,4.05
2023-01-26T05:55:51.075Z,4.90
2023-01-26T05:58:17.659Z,4.03
2023-01-26T06:00:44.252Z,4.55
2023-01-26T06:03:10.879Z,4.43
2023-01-26T06:05:38.829Z,4.43
2023-01-26T06:08:05.820Z,4.50
2023-01-26T06:10:32.376Z,4.20
2023-01-26T06:13:00.485Z,5.03
2023-01-26T06:15:27.036Z,5.00
2023-01-26T06:17:53.598Z,4.55
2023-01-26T06:20:20.180Z,4.90
2023-01-26T06:22:46.768Z,4.32
2023-01-26T06:25:13.351Z,4.88
2023-01-26T06:27:42.348Z,5.28
2023-01-26T06:30:10.616Z,4.82
2023-01-26T06:32:37.620Z,4.47
2023-01-26T06:35:07.004Z,4.43
2023-01-26T06:37:33.730Z,4.22
2023-01-26T06:40:00.287Z,4.38
2023-01-26T06:42:27.130Z,5.00
2023-01-26T06:44:53.813Z,4.67
2023-01-26T06:47:20.389Z,5.00
2023-01-26T06:49:46.917Z,4.47
2023-01-26T06:52:32.714Z,4.97
2023-01-26T06:55:00.352Z,4.70
2023-01-26T06:57:26.947Z,4.90
2023-01-26T06:59:53.757Z,5.53
2023-01-26T07:02:21.925Z,5.07
2023-01-26T07:04:49.873Z,4.55
2023-01-26T07:07:16.582Z,4.88
2023-01-26T07:09:43.177Z,4.93
2023-01-26T07:12:09.744Z,4.45
2023-01-26T07:14:36.368Z,4.30
2023-01-26T07:17:03.010Z,5.28
2023-01-26T07:19:31.418Z,5.10
2023-01-26T07:21:58.068Z,4.40
2023-01-26T07:24:24.868Z,4.05
2023-01-26T07:26:51.914Z,4.70
2023-01-26T07:29:18.501Z,4.63
2023-01-26T07:31:45.168Z,4.53
2023-01-26T07:34:12.166Z,4.67
2023-01-26T07:36:38.852Z,5.25
2023-01-26T07:39:08.326Z,5.00
2023-01-26T07:41:35.376Z,4.72
2023-01-26T07:44:02.118Z,4.80
2023-01-26T07:46:28.951Z,4.80
2023-01-26T07:48:55.539Z,4.85
2023-01-26T07:51:23.073Z,5.00
2023-01-26T07:53:50.035Z,4.13
2023-01-26T07:56:19.634Z,5.20
2023-01-26T07:58:52.750Z,4.80
2023-01-26T08:01:19.655Z,4.05
2023-01-26T08:03:46.236Z,5.13
2023-01-26T08:06:13.936Z,4.47
2023-01-26T08:08:42.595Z,4.47
2023-01-26T08:11:10.183Z,4.37
2023-01-26T08:13:36.777Z,5.15
2023-01-26T08:16:06.557Z,4.43
2023-01-26T08:18:33.148Z,4.50
2023-01-26T08:21:00.459Z,4.05
2023-01-26T08:23:27.273Z,3.97
2023-01-26T08:25:53.933Z,4.18
2023-01-26T08:28:21.294Z,4.60
2023-01-26T08:30:47.964Z,4.78
2023-01-26T08:33:14.569Z,4.43
2023-01-26T08:35:41.122Z,4.57
2023-01-26T08:38:07.763Z,4.25
2023-01-26T08:40:34.374Z,4.55
2023-01-26T08:43:02.379Z,4.65
2023-01-26T08:45:31.932Z,4.75
2023-01-26T08:47:58.580Z,4.63
2023-01-26T08:50:25.789Z,4.63
2023-01-26T08:52:52.470Z,4.35
2023-01-26T08:55:19.018Z,5.38
2023-01-26T08:57:47.081Z,4.70
2023-01-26T09:00:14.563Z,4.60
2023-01-26T09:02:41.330Z,4.47
2023-01-26T09:05:08.519Z,4.07
2023-01-26T09:07:35.074Z,4.30
2023-01-26T09:10:01.711Z,5.15
2023-01-26T09:12:28.320Z,4.27
2023-01-26T09:14:54.869Z,4.88
2023-01-26T09:17:21.448Z,3.72
2023-01-26T09:19:48.034Z,5.10
2023-01-26T09:22:14.591Z,4.45
2023-01-26T09:24:41.213Z,4.83
2023-01-26T09:27:08.804Z,4.47
2023-01-26T09:29:35.381Z,4.10
2023-01-26T09:32:02.195Z,3.92
2023-01-26T09:34:28.923Z,4.20
2023-01-26T09:36:55.511Z,4.20
2023-01-26T09:39:22.105Z,4.30
2023-01-26T09:42:06.782Z,5.07
2023-01-26T09:44:40.820Z,4.40
2023-01-26T09:47:56.788Z,4.85
2023-01-26T09:50:28.115Z,4.47
2023-01-26T09:52:59.283Z,4.20
2023-01-26T09:55:26.225Z,4.63
2023-01-26T09:58:00.688Z,4.20
2023-01-26T10:00:40.869Z,4.43
2023-01-26T10:03:41.345Z,4.40
2023-01-26T10:06:13.717Z,4.45
2023-01-26T10:08:42.084Z,4.10
2023-01-26T10:11:19.281Z,4.35
2023-01-26T10:13:51.791Z,3.97
2023-01-26T10:16:18.523Z,5.13
2023-01-26T10:19:00.638Z,4.63
2023-01-26T10:21:33.716Z,3.63
2023-01-26T10:24:02.077Z,4.18
2023-01-26T10:26:32.275Z,4.28
2023-01-26T10:28:59.205Z,4.23
2023-01-26T10:31:31.153Z,4.13
2023-01-26T10:34:06.249Z,4.50
2023-01-26T10:36:32.879Z,4.05
2023-01-26T10:39:08.139Z,3.92
2023-01-26T10:41:34.964Z,3.77
2023-01-26T10:44:04.877Z,4.05
2023-01-26T10:46:39.917Z,4.30
2023-01-26T10:49:09.270Z,4.65
2023-01-26T10:51:40.494Z,4.97
2023-01-26T10:54:16.018Z,3.80
2023-01-26T10:56:52.650Z,4.82
2023-01-26T10:59:34.484Z,4.22
2023-01-26T11:02:21.847Z,4.35
2023-01-26T11:05:09.394Z,4.47
2023-01-26T11:07:44.045Z,4.47
2023-01-26T11:10:16.466Z,3.95
2023-01-26T11:12:43.236Z,4.30
2023-01-26T11:15:20.370Z,4.38
2023-01-26T11:17:56.469Z,4.40
2023-01-26T11:20:56.047Z,4.40
2023-01-26T11:23:25.581Z,4.18
2023-01-26T11:26:10.352Z,4.60
2023-01-26T11:29:06.105Z,4.18
2023-01-26T11:32:05.621Z,4.30
2023-01-26T11:34:50.727Z,4.10
2023-01-26T11:37:28.938Z,4.50
2023-01-26T11:40:20.283Z,4.32
2023-01-26T11:43:28.199Z,4.43
2023-01-26T11:46:17.530Z,4.22
2023-01-26T11:49:14.722Z,4.83
2023-01-26T11:52:13.446Z,3.85
2023-01-26T11:55:19.105Z,4.32
2023-01-26T11:58:05.285Z,4.00
2023-01-26T12:00:41.887Z,4.05
2023-01-26T12:03:37.610Z,4.13
2023-01-26T12:06:08.746Z,4.28
2023-01-26T12:08:39.844Z,4.22
2023-01-26T12:11:28.062Z,3.92
2023-01-26T12:14:03.584Z,3.90
2023-01-26T12:16:43.893Z,3.73
2023-01-26T12:19:16.927Z,4.03
2023-01-26T12:21:45.360Z,3.97
2023-01-26T12:24:48.332Z,3.60
2023-01-26T12:27:16.625Z,3.75
2023-01-26T12:29:53.050Z,3.83
2023-01-26T12:32:19.773Z,4.53
2023-01-26T12:34:46.314Z,3.95
2023-01-26T12:37:36.314Z,3.63
2023-01-26T12:40:21.667Z,4.47
2023-01-26T12:43:07.330Z,3.87
2023-01-26T12:45:38.433Z,3.67
2023-01-26T12:48:22.004Z,4.60
2023-01-26T12:51:11.340Z,3.92
2023-01-26T12:53:59.575Z,3.70
2023-01-26T12:56:31.889Z,4.53
2023-01-26T12:59:00.670Z,3.38
2023-01-26T13:01:38.298Z,3.70
2023-01-26T13:04:11.779Z,4.05
2023-01-26T13:06:38.510Z,3.28
2023-01-26T13:09:25.539Z,4.20
2023-01-26T13:11:58.232Z,3.85
2023-01-26T13:14:48.014Z,4.43
2023-01-26T13:17:17.698Z,3.95
2023-01-26T13:19:44.197Z,3.85
2023-01-26T13:22:25.881Z,3.87
2023-01-26T13:24:55.527Z,3.80
2023-01-26T13:27:40.463Z,3.92
2023-01-26T13:30:22.268Z,4.13
2023-01-26T13:32:48.945Z,4.60
2023-01-26T13:35:19.103Z,4.17
2023-01-26T13:37:53.177Z,4.32
2023-01-26T13:40:32.477Z,3.95
2023-01-26T13:43:20.752Z,4.30
2023-01-26T13:45:54.921Z,3.97
2023-01-26T13:48:34.849Z,4.00
2023-01-26T13:51:02.647Z,3.95
2023-01-26T13:53:29.126Z,3.90
2023-01-26T13:55:59.116Z,3.92
2023-01-26T13:58:26.343Z,3.58
2023-01-26T14:01:07.416Z,3.80
2023-01-26T14:03:34.074Z,3.75
2023-01-26T14:06:04.987Z,3.78
2023-01-26T14:08:32.225Z,3.63
2023-01-26T14:10:59.982Z,3.90
2023-01-26T14:13:34.213Z,4.30
2023-01-26T14:16:02.245Z,3.78
2023-01-26T14:18:29.105Z,3.88
2023-01-26T14:21:22.326Z,3.90
2023-01-26T14:23:56.518Z,3.90
2023-01-26T14:26:31.505Z,3.53
2023-01-26T14:29:00.488Z,3.60
2023-01-26T14:31:28.400Z,3.70
2023-01-26T14:33:59.356Z,3.88
2023-01-26T14:36:29.662Z,4.10
2023-01-26T14:38:56.829Z,4.00
2023-01-26T14:41:28.660Z,3.70
2023-01-26T14:43:59.683Z,3.85
2023-01-26T14:46:29.519Z,3.75
2023-01-26T14:49:08.849Z,3.92
2023-01-26T14:51:36.811Z,3.30
2023-01-26T14:54:06.117Z,3.30
2023-01-26T14:56:38.107Z,3.90
2023-01-26T14:59:05.622Z,3.55
2023-01-26T15:01:32.888Z,3.47
2023-01-26T15:04:03.288Z,3.80
2023-01-26T15:06:30.754Z,3.72
2023-01-26T15:09:26.034Z,4.35
2023-01-26T15:12:12.984Z,4.05
2023-01-26T15:14:45.392Z,4.10
2023-01-26T15:17:36.486Z,3.57
2023-01-26T15:20:24.008Z,3.58
2023-01-26T15:22:52.224Z,3.83
2023-01-26T15:25:19.896Z,3.58
2023-01-26T15:27:56.670Z,3.28
2023-01-26T15:30:31.024Z,3.50
2023-01-26T15:32:57.891Z,3.92
2023-01-26T15:35:32.043Z,3.47
2023-01-26T15:38:07.510Z,3.92
2023-01-26T15:40:34.283Z,4.20
2023-01-26T15:43:20.252Z,3.83
2023-01-26T15:45:57.942Z,3.58
2023-01-26T15:48:25.489Z,3.10
2023-01-26T15:50:52.166Z,3.30
2023-01-26T15:53:20.939Z,3.58
2023-01-26T15:55:52.935Z,3.67
2023-01-26T15:58:19.833Z,3.40
2023-01-26T16:00:46.474Z,3.28
2023-01-26T16:03:15.551Z,3.97
2023-01-26T16:05:42.269Z,3.65
2023-01-26T16:08:09.610Z,3.47
2023-01-26T16:10:37.865Z,3.70
2023-01-26T16:13:12.427Z,3.60
2023-01-26T16:15:43.748Z,3.30
2023-01-26T16:18:11.195Z,3.40
2023-01-26T16:20:39.818Z,3.80
2023-01-26T16:23:21.463Z,4.20
2023-01-26T16:25:48.421Z,3.45
2023-01-26T16:28:15.564Z,3.40
2023-01-26T16:30:43.694Z,3.40
2023-01-26T16:33:16.534Z,4.07
2023-01-26T16:35:43.507Z,3.50
2023-01-26T16:38:13.143Z,4.03
2023-01-26T16:40:44.870Z,3.50
2023-01-26T16:43:16.907Z,3.33
2023-01-26T16:45:43.514Z,3.67
2023-01-26T16:48:12.897Z,4.05
2023-01-26T16:50:39.981Z,3.88
2023-01-26T16:53:17.308Z,4.32
2023-01-26T16:55:43.854Z,3.70
2023-01-26T16:58:10.433Z,3.67
2023-01-26T17:00:37.139Z,3.50
2023-01-26T17:03:03.845Z,3.90
2023-01-26T17:05:31.318Z,3.85
2023-01-26T17:07:58.636Z,3.53
2023-01-26T17:10:25.289Z,3.60
2023-01-26T17:12:52.906Z,3.47
2023-01-26T17:15:19.691Z,3.55
2023-01-26T17:17:49.148Z,3.28
2023-01-26T17:20:20.007Z,3.47
2023-01-26T17:22:47.710Z,3.83
2023-01-26T17:25:16.917Z,3.45
2023-01-26T17:27:45.013Z,3.65
2023-01-26T17:30:11.971Z,3.72
2023-01-26T17:32:38.529Z,3.60
2023-01-26T17:35:05.455Z,3.67
2023-01-26T17:37:32.072Z,3.88
2023-01-26T17:39:58.980Z,3.72
2023-01-26T17:42:25.851Z,3.55
2023-01-26T17:44:52.743Z,3.75
2023-01-26T17:47:19.355Z,4.43
2023-01-26T17:49:45.941Z,3.67
2023-01-26T17:52:14.381Z,3.50
2023-01-26T17:54:41.237Z,3.65
2023-01-26T17:57:08.226Z,3.40
2023-01-26T17:59:34.870Z,3.90
2023-01-26T18:02:01.613Z,4.10
2023-01-26T18:04:30.436Z,3.53
2023-01-26T18:06:57.847Z,4.07
2023-01-26T18:09:24.540Z,3.50
2023-01-26T18:11:51.102Z,3.90
2023-01-26T18:14:17.670Z,4.55
2023-01-26T18:16:44.257Z,4.47
2023-01-26T18:19:10.892Z,3.45
2023-01-26T18:21:37.493Z,4.10
2023-01-26T18:24:06.063Z,3.47
2023-01-26T18:26:36.615Z,4.30
2023-01-26T18:29:05.177Z,3.97
2023-01-26T18:31:36.818Z,3.90
2023-01-26T18:34:04.143Z,3.50
2023-01-26T18:36:30.812Z,4.63
2023-01-26T18:38:59.765Z,3.45
2023-01-26T18:41:27.132Z,3.75
2023-01-26T18:43:55.378Z,3.80
2023-01-26T18:46:22.436Z,3.60
2023-01-26T18:48:49.284Z,3.77
2023-01-26T18:51:18.172Z,3.60
2023-01-26T18:53:45.375Z,4.72
2023-01-26T18:56:14.105Z,3.83
2023-01-26T18:58:40.928Z,3.95
2023-01-26T19:01:11.915Z,4.27
2023-01-26T19:03:41.567Z,4.28
2023-01-26T19:06:09.866Z,3.95
2023-01-26T19:08:36.432Z,3.78
2023-01-26T19:11:06.959Z,3.85
2023-01-26T19:13:33.988Z,4.33
2023-01-26T19:16:00.718Z,3.63
2023-01-26T19:18:27.412Z,3.72
2023-01-26T19:20:58.797Z,3.60
2023-01-26T19:23:25.520Z,4.38
2023-01-26T19:25:52.128Z,4.53
2023-01-26T19:28:19.038Z,3.28
2023-01-26T19:30:46.552Z,3.65
2023-01-26T19:33:25.554Z,3.88
2023-01-26T19:35:52.525Z,3.35
2023-01-26T19:38:19.370Z,3.70
2023-01-26T19:40:47.157Z,3.92
2023-01-26T19:43:15.003Z,3.30
2023-01-26T19:45:41.661Z,3.70
2023-01-26T19:48:08.286Z,3.60
2023-01-26T19:50:34.839Z,4.00
2023-01-26T19:53:01.449Z,4.07
2023-01-26T19:55:28.015Z,4.30
2023-01-26T19:57:54.596Z,3.80
2023-01-26T20:00:21.299Z,3.75
2023-01-26T20:02:47.942Z,4.70
2023-01-26T20:05:14.758Z,3.47
2023-01-26T20:07:42.319Z,3.90
2023-01-26T20:10:09.581Z,3.45
2023-01-26T20:12:36.450Z,3.42
2023-01-26T20:15:04.034Z,3.63
2023-01-26T20:17:30.607Z,4.10
2023-01-26T20:19:57.172Z,3.80
2023-01-26T20:22:24.226Z,4.13
2023-01-26T20:24:50.811Z,3.22
2023-01-26T20:27:17.444Z,3.70
2023-01-26T20:29:43.999Z,3.40
2023-01-26T20:32:10.571Z,3.60
2023-01-26T20:34:39.491Z,3.63
2023-01-26T20:37:08.770Z,3.35
2023-01-26T20:39:35.324Z,3.37
2023-01-26T20:42:01.856Z,3.33
2023-01-26T20:44:29.018Z,3.35
2023-01-26T20:46:55.615Z,4.40
2023-01-26T20:49:22.433Z,3.80
2023-01-26T20:51:49.362Z,3.43
2023-01-26T20:54:16.981Z,3.80
2023-01-26T20:56:45.596Z,3.65
2023-01-26T20:59:12.404Z,3.42
2023-01-26T21:01:38.978Z,3.63
2023-01-26T21:04:05.911Z,3.77
2023-01-26T21:06:32.572Z,3.40
2023-01-26T21:09:00.133Z,3.13
2023-01-26T21:11:30.344Z,5.35
2023-01-26T21:13:58.250Z,3.10
2023-01-26T21:16:24.921Z,3.47
2023-01-26T21:18:51.665Z,4.03
2023-01-26T21:21:18.944Z,3.80
2023-01-26T21:23:46.287Z,3.22
2023-01-26T21:26:18.729Z,3.40
2023-01-26T21:28:50.134Z,3.43
2023-01-26T21:31:16.866Z,3.42
2023-01-26T21:33:45.438Z,3.67
2023-01-26T21:36:17.508Z,3.70
2023-01-26T21:38:46.515Z,3.60
2023-01-26T21:41:33.506Z,3.20
2023-01-26T21:44:10.287Z,3.63
2023-01-26T21:46:37.143Z,3.35
2023-01-26T21:49:04.337Z,3.45
2023-01-26T21:51:49.665Z,3.60
2023-01-26T21:54:16.605Z,3.20
2023-01-26T21:56:43.164Z,3.85
2023-01-26T21:59:14.517Z,3.40
2023-01-26T22:01:46.517Z,3.40
2023-01-26T22:04:16.333Z,3.00
2023-01-26T22:06:43.182Z,3.10
2023-01-26T22:09:11.601Z,3.30
2023-01-26T22:11:39.144Z,3.60
2023-01-26T22:14:07.256Z,3.55
2023-01-26T22:16:33.999Z,3.58
2023-01-26T22:19:00.611Z,3.50
2023-01-26T22:21:27.198Z,3.25
2023-01-26T22:23:55.121Z,3.50
2023-01-26T22:26:22.765Z,3.28
2023-01-26T22:28:56.344Z,3.38
2023-01-26T22:31:27.009Z,3.27
2023-01-26T22:33:54.986Z,3.35
2023-01-26T22:36:22.303Z,3.30
2023-01-26T22:38:49.147Z,3.60
2023-01-26T22:41:21.281Z,3.55
2023-01-26T22:43:48.617Z,3.53
2023-01-26T22:46:16.106Z,3.42
2023-01-26T22:48:42.682Z,3.72
2023-01-26T22:51:23.139Z,3.83
2023-01-26T22:53:51.865Z,3.47
2023-01-26T22:56:19.201Z,3.37
2023-01-26T22:58:57.757Z,3.45
2023-01-26T23:01:26.648Z,3.40
2023-01-26T23:03:54.374Z,3.17
2023-01-26T23:06:21.651Z,3.00
2023-01-26T23:08:48.324Z,3.43
2023-01-26T23:11:17.027Z,3.30
2023-01-26T23:13:44.814Z,3.97
2023-01-26T23:16:14.485Z,3.55
2023-01-26T23:18:41.422Z,3.17
2023-01-26T23:21:08.456Z,3.30
2023-01-26T23:23:35.345Z,3.20
2023-01-26T23:26:03.451Z,3.50
2023-01-26T23:28:32.462Z,3.03
2023-01-26T23:30:59.932Z,3.50
2023-01-26T23:33:28.549Z,3.43
2023-01-26T23:35:55.398Z,3.42
2023-01-26T23:38:23.343Z,3.28
2023-01-26T23:40:50.748Z,3.33
2023-01-26T23:43:18.407Z,3.47
2023-01-26T23:45:46.605Z,3.63
2023-01-26T23:48:13.515Z,3.25
2023-01-26T23:50:40.456Z,4.03
2023-01-26T23:53:07.360Z,3.45
2023-01-26T23:55:34.693Z,3.65
2023-01-26T23:58:01.329Z,3.03
